createdAt,value
2017-09-26T00:01:57.495Z,48.47
2017-09-26T00:04:25.725Z,48.43
2017-09-26T00:06:53.991Z,48.93
2017-09-26T00:09:22.411Z,42.47
2017-09-26T00:11:50.834Z,40.33
2017-09-26T00:14:20.256Z,47.07
2017-09-26T00:16:48.666Z,48.60
2017-09-26T00:19:17.080Z,42.83
2017-09-26T00:21:46.451Z,46.30
2017-09-26T00:24:14.863Z,47.20
2017-09-26T00:26:44.061Z,50.20
2017-09-26T00:29:13.497Z,55.07
2017-09-26T00:31:41.911Z,49.30
2017-09-26T00:34:10.145Z,48.70
2017-09-26T00:36:38.625Z,47.17
2017-09-26T00:39:06.853Z,42.93
2017-09-26T00:41:35.082Z,44.77
2017-09-26T00:44:03.518Z,41.80
2017-09-26T00:46:32.704Z,43.10
2017-09-26T00:49:01.111Z,44.27
2017-09-26T00:51:28.841Z,44.40
2017-09-26T00:53:56.559Z,45.57
2017-09-26T00:56:24.787Z,44.83
2017-09-26T00:58:53.803Z,56.40
2017-09-26T01:01:22.117Z,47.50
2017-09-26T01:03:55.102Z,43.80
2017-09-26T01:06:24.466Z,51.10
2017-09-26T01:08:52.695Z,54.83
2017-09-26T01:11:21.131Z,48.33
2017-09-26T01:13:49.564Z,51.33
2017-09-26T01:16:17.987Z,48.80
2017-09-26T01:18:46.421Z,49.00
2017-09-26T01:21:14.647Z,46.93
2017-09-26T01:23:43.059Z,44.20
2017-09-26T01:26:11.298Z,45.73
2017-09-26T01:28:39.716Z,44.40
2017-09-26T01:31:08.141Z,44.00
2017-09-26T01:33:36.577Z,49.10
2017-09-26T01:36:05.006Z,45.53
2017-09-26T01:38:33.419Z,49.07
2017-09-26T01:41:12.950Z,48.30
2017-09-26T01:43:41.390Z,47.43
2017-09-26T01:46:09.824Z,42.50
2017-09-26T01:48:38.084Z,51.50
2017-09-26T01:51:06.313Z,51.37
2017-09-26T01:53:34.539Z,53.77
2017-09-26T01:56:02.783Z,58.23
2017-09-26T01:58:46.687Z,47.40
2017-09-26T02:01:16.123Z,50.63
2017-09-26T02:03:44.537Z,47.80
2017-09-26T02:06:12.969Z,53.70
2017-09-26T02:08:41.407Z,52.50
2017-09-26T02:11:09.814Z,52.87
2017-09-26T02:13:39.003Z,43.43
2017-09-26T02:16:08.198Z,51.07
2017-09-26T02:18:37.375Z,59.37
2017-09-26T02:21:05.774Z,50.57
2017-09-26T02:23:34.204Z,50.10
2017-09-26T02:26:02.606Z,47.23
2017-09-26T02:28:31.022Z,50.13
2017-09-26T02:31:00.224Z,43.40
2017-09-26T02:33:28.638Z,51.97
2017-09-26T02:35:57.058Z,47.03
2017-09-26T02:38:26.254Z,42.90
2017-09-26T02:40:55.438Z,47.07
2017-09-26T02:43:23.864Z,41.93
2017-09-26T02:45:52.312Z,49.87
2017-09-26T02:48:21.498Z,45.20
2017-09-26T02:50:49.922Z,46.43
2017-09-26T02:53:18.362Z,45.40
2017-09-26T02:55:47.561Z,44.27
2017-09-26T02:58:17.465Z,42.53
2017-09-26T03:00:45.893Z,47.73
2017-09-26T03:03:14.302Z,44.80
2017-09-26T03:05:42.732Z,47.77
2017-09-26T03:08:11.170Z,44.47
2017-09-26T03:10:39.587Z,46.40
2017-09-26T03:13:08.003Z,52.40
2017-09-26T03:15:36.448Z,43.23
2017-09-26T03:18:04.863Z,44.43
2017-09-26T03:20:33.318Z,38.60
2017-09-26T03:23:01.758Z,41.53
2017-09-26T03:25:30.167Z,43.17
2017-09-26T03:27:58.394Z,38.73
2017-09-26T03:30:26.826Z,42.40
2017-09-26T03:32:55.246Z,42.97
2017-09-26T03:35:23.482Z,43.30
2017-09-26T03:37:51.748Z,44.67
2017-09-26T03:40:20.173Z,44.37
2017-09-26T03:42:48.588Z,43.40
2017-09-26T03:45:17.602Z,49.53
2017-09-26T03:47:46.020Z,55.00
2017-09-26T03:50:14.444Z,44.83
2017-09-26T03:52:42.896Z,44.67
2017-09-26T03:55:11.346Z,53.03
2017-09-26T03:57:39.580Z,43.80
2017-09-26T04:00:07.483Z,45.93
2017-09-26T04:02:35.370Z,45.67
2017-09-26T04:05:03.781Z,47.97
2017-09-26T04:07:32.279Z,46.97
2017-09-26T04:10:00.691Z,50.17
2017-09-26T04:12:29.152Z,37.60
2017-09-26T04:14:57.805Z,41.30
2017-09-26T04:17:26.984Z,38.20
2017-09-26T04:19:55.401Z,37.63
2017-09-26T04:22:23.671Z,37.20
2017-09-26T04:24:51.895Z,37.13
2017-09-26T04:27:20.125Z,36.17
2017-09-26T04:29:48.572Z,29.73
2017-09-26T04:32:17.758Z,30.60
2017-09-26T04:34:46.182Z,32.50
2017-09-26T04:37:14.627Z,30.57
2017-09-26T04:39:43.044Z,42.33
2017-09-26T04:42:11.284Z,37.33
2017-09-26T04:44:39.567Z,39.90
2017-09-26T04:47:07.976Z,35.70
2017-09-26T04:49:38.500Z,53.60
2017-09-26T04:52:06.932Z,40.57
2017-09-26T04:54:35.348Z,37.80
2017-09-26T04:57:03.794Z,41.30
2017-09-26T04:59:32.992Z,36.67
2017-09-26T05:02:02.181Z,33.67
2017-09-26T05:04:30.599Z,42.63
2017-09-26T05:06:59.036Z,41.13
2017-09-26T05:09:27.463Z,40.23
2017-09-26T05:11:55.895Z,44.20
2017-09-26T05:14:24.359Z,37.73
2017-09-26T05:16:52.775Z,37.30
2017-09-26T05:19:21.961Z,39.97
2017-09-26T05:21:51.159Z,37.13
2017-09-26T05:24:25.158Z,37.60
2017-09-26T05:26:53.686Z,35.23
2017-09-26T05:29:22.108Z,37.87
2017-09-26T05:31:51.327Z,29.30
2017-09-26T05:34:20.529Z,27.93
2017-09-26T05:36:49.749Z,24.90
2017-09-26T05:39:18.179Z,21.10
2017-09-26T05:41:46.615Z,20.10
2017-09-26T05:44:15.105Z,23.30
2017-09-26T05:46:43.537Z,24.33
2017-09-26T05:49:12.733Z,25.60
2017-09-26T05:51:41.139Z,21.60
2017-09-26T05:54:09.569Z,18.43
2017-09-26T05:56:38.003Z,22.50
2017-09-26T05:59:06.427Z,21.77
2017-09-26T06:01:34.844Z,19.43
2017-09-26T06:04:03.289Z,24.77
2017-09-26T06:06:31.714Z,32.87
2017-09-26T06:09:00.194Z,27.67
2017-09-26T06:11:28.507Z,34.40
2017-09-26T06:13:56.242Z,35.70
2017-09-26T06:16:24.654Z,27.57
2017-09-26T06:18:53.100Z,28.37
2017-09-26T06:21:21.523Z,29.90
2017-09-26T06:23:49.759Z,24.57
2017-09-26T06:26:18.011Z,32.93
2017-09-26T06:28:46.239Z,55.83
2017-09-26T06:31:15.389Z,79.80
2017-09-26T06:33:43.844Z,54.00
2017-09-26T06:36:13.034Z,47.63
2017-09-26T06:38:42.215Z,32.90
2017-09-26T06:41:11.432Z,19.43
2017-09-26T06:43:39.861Z,24.43
2017-09-26T06:46:07.936Z,28.13
2017-09-26T06:48:36.370Z,17.23
2017-09-26T06:51:04.793Z,17.00
2017-09-26T06:53:33.214Z,13.43
2017-09-26T06:56:02.407Z,16.57
2017-09-26T06:58:31.599Z,24.80
2017-09-26T07:01:00.824Z,11.27
2017-09-26T07:03:29.475Z,27.73
2017-09-26T07:05:57.999Z,17.97
2017-09-26T07:08:26.432Z,13.80
2017-09-26T07:10:54.867Z,20.43
2017-09-26T07:13:23.337Z,16.43
2017-09-26T07:15:51.754Z,19.57
2017-09-26T07:18:20.206Z,18.63
2017-09-26T07:20:48.647Z,20.63
2017-09-26T07:23:17.683Z,19.10
2017-09-26T07:25:46.162Z,25.30
2017-09-26T07:28:14.593Z,18.90
2017-09-26T07:30:43.783Z,14.43
2017-09-26T07:33:13.217Z,16.13
2017-09-26T07:35:41.624Z,12.60
2017-09-26T07:38:10.048Z,15.57
2017-09-26T07:40:39.254Z,20.20
2017-09-26T07:43:08.440Z,13.63
2017-09-26T07:45:37.618Z,12.50
2017-09-26T07:48:06.066Z,14.33
2017-09-26T07:50:33.614Z,14.10
2017-09-26T07:53:01.850Z,26.50
2017-09-26T07:55:31.120Z,17.37
2017-09-26T07:57:59.531Z,11.93
2017-09-26T08:00:29.272Z,20.00
2017-09-26T08:02:57.698Z,17.37
2017-09-26T08:05:26.332Z,15.50
2017-09-26T08:07:55.540Z,10.83
2017-09-26T08:10:23.986Z,14.00
2017-09-26T08:12:52.401Z,14.70
2017-09-26T08:15:20.823Z,13.90
2017-09-26T08:17:49.342Z,8.73
2017-09-26T08:20:17.773Z,20.17
2017-09-26T08:22:46.192Z,12.43
2017-09-26T08:25:14.627Z,11.57
2017-09-26T08:27:43.035Z,13.40
2017-09-26T08:30:12.215Z,13.73
2017-09-26T08:32:41.423Z,14.83
2017-09-26T08:35:10.615Z,13.40
2017-09-26T08:37:39.875Z,19.77
2017-09-26T08:40:08.221Z,11.50
2017-09-26T08:42:36.743Z,13.97
2017-09-26T08:45:05.161Z,12.33
2017-09-26T08:47:33.598Z,9.43
2017-09-26T08:50:02.056Z,11.87
2017-09-26T08:52:30.478Z,13.67
2017-09-26T08:54:59.918Z,15.50
2017-09-26T08:57:28.340Z,12.73
2017-09-26T08:59:56.756Z,17.47
2017-09-26T09:02:25.179Z,12.57
2017-09-26T09:04:53.599Z,10.50
2017-09-26T09:07:22.807Z,12.10
2017-09-26T09:09:52.014Z,14.77
2017-09-26T09:12:21.081Z,13.70
2017-09-26T09:14:49.362Z,19.43
2017-09-26T09:17:18.584Z,16.63
2017-09-26T09:19:47.007Z,12.83
2017-09-26T09:22:15.427Z,17.67
2017-09-26T09:24:44.872Z,11.10
2017-09-26T09:27:13.285Z,14.73
2017-09-26T09:29:41.708Z,11.90
2017-09-26T09:32:10.143Z,7.17
2017-09-26T09:34:39.323Z,8.70
2017-09-26T09:37:07.739Z,7.73
2017-09-26T09:39:36.949Z,15.60
2017-09-26T09:42:05.371Z,12.37
2017-09-26T09:44:33.779Z,9.60
2017-09-26T09:47:02.975Z,11.20
2017-09-26T09:49:32.161Z,11.40
2017-09-26T09:52:00.601Z,8.63
2017-09-26T09:54:29.263Z,14.20
2017-09-26T09:56:57.681Z,11.37
2017-09-26T09:59:26.106Z,15.70
2017-09-26T10:01:54.542Z,10.00
2017-09-26T10:04:23.092Z,15.23
2017-09-26T10:06:51.544Z,11.43
2017-09-26T10:09:20.730Z,14.83
2017-09-26T10:11:49.906Z,9.13
2017-09-26T10:14:18.326Z,10.00
2017-09-26T10:16:46.766Z,8.77
2017-09-26T10:19:15.185Z,9.07
2017-09-26T10:21:43.590Z,9.50
2017-09-26T10:24:12.038Z,11.60
2017-09-26T10:26:40.466Z,9.20
2017-09-26T10:29:08.894Z,10.30
2017-09-26T10:31:37.496Z,14.77
2017-09-26T10:34:05.920Z,9.17
2017-09-26T10:36:34.350Z,9.20
2017-09-26T10:39:02.828Z,9.20
2017-09-26T10:41:31.248Z,12.83
2017-09-26T10:43:59.659Z,10.43
2017-09-26T10:46:29.087Z,9.00
2017-09-26T10:48:57.509Z,10.30
2017-09-26T10:51:25.929Z,10.60
2017-09-26T10:53:54.443Z,11.13
2017-09-26T10:56:23.077Z,14.37
2017-09-26T10:58:52.245Z,9.47
2017-09-26T11:01:20.712Z,18.90
2017-09-26T11:03:49.140Z,15.03
2017-09-26T11:06:18.323Z,14.03
2017-09-26T11:08:46.755Z,13.33
2017-09-26T11:11:15.225Z,11.40
2017-09-26T11:13:43.641Z,13.57
2017-09-26T11:16:12.844Z,13.20
2017-09-26T11:18:41.074Z,10.10
2017-09-26T11:21:09.294Z,16.80
2017-09-26T11:23:37.604Z,9.10
2017-09-26T11:26:06.018Z,12.20
2017-09-26T11:28:34.545Z,12.97
2017-09-26T11:31:03.738Z,12.50
2017-09-26T11:33:32.914Z,13.17
2017-09-26T11:36:01.138Z,13.30
2017-09-26T11:38:29.405Z,11.40
2017-09-26T11:40:58.268Z,9.03
2017-09-26T11:43:27.444Z,13.87
2017-09-26T11:45:55.871Z,8.33
2017-09-26T11:48:24.295Z,11.00
2017-09-26T11:50:52.696Z,9.80
2017-09-26T11:53:21.139Z,9.87
2017-09-26T11:55:49.553Z,10.73
2017-09-26T11:58:17.983Z,9.73
2017-09-26T12:00:46.451Z,10.40
2017-09-26T12:03:14.874Z,14.73
2017-09-26T12:05:43.280Z,10.23
2017-09-26T12:08:12.463Z,7.77
2017-09-26T12:10:40.878Z,8.20
2017-09-26T12:13:14.870Z,14.70
2017-09-26T12:15:44.108Z,13.03
2017-09-26T12:18:12.575Z,12.20
2017-09-26T12:20:40.995Z,14.07
2017-09-26T12:23:09.411Z,12.27
2017-09-26T12:25:38.600Z,16.60
2017-09-26T12:28:07.796Z,12.80
2017-09-26T12:30:36.973Z,9.60
2017-09-26T12:33:05.384Z,9.87
2017-09-26T12:35:33.826Z,11.43
2017-09-26T12:38:02.253Z,8.93
2017-09-26T12:40:30.532Z,10.60
2017-09-26T12:42:58.965Z,11.27
2017-09-26T12:45:27.375Z,10.97
2017-09-26T12:47:55.793Z,12.90
2017-09-26T12:50:24.442Z,14.43
2017-09-26T12:52:52.849Z,11.37
2017-09-26T12:55:21.266Z,17.30
2017-09-26T12:57:49.714Z,10.93
2017-09-26T13:00:18.127Z,10.67
2017-09-26T13:02:47.304Z,10.80
2017-09-26T13:05:15.742Z,11.63
2017-09-26T13:07:44.150Z,12.17
2017-09-26T13:10:12.566Z,12.00
2017-09-26T13:12:41.757Z,23.10
2017-09-26T13:15:10.943Z,12.13
2017-09-26T13:17:39.370Z,17.00
2017-09-26T13:20:07.820Z,13.27
2017-09-26T13:22:37.024Z,14.10
2017-09-26T13:25:06.214Z,16.70
2017-09-26T13:27:35.402Z,17.33
2017-09-26T13:30:04.315Z,19.60
2017-09-26T13:32:32.742Z,20.20
2017-09-26T13:35:01.215Z,23.33
2017-09-26T13:37:29.628Z,18.70
2017-09-26T13:39:58.823Z,20.90
2017-09-26T13:42:28.050Z,21.00
2017-09-26T13:44:56.468Z,18.40
2017-09-26T13:47:24.895Z,21.17
2017-09-26T13:49:53.363Z,12.90
2017-09-26T13:52:22.538Z,17.93
2017-09-26T13:54:50.970Z,15.80
2017-09-26T13:57:19.211Z,16.80
2017-09-26T13:59:48.047Z,18.00
2017-09-26T14:02:16.468Z,13.87
2017-09-26T14:04:44.905Z,13.80
2017-09-26T14:07:13.313Z,12.30
2017-09-26T14:09:41.735Z,12.87
2017-09-26T14:12:10.174Z,12.50
2017-09-26T14:14:38.593Z,11.23
2017-09-26T14:17:07.003Z,11.80
2017-09-26T14:19:35.446Z,10.63
2017-09-26T14:22:03.943Z,11.90
2017-09-26T14:24:32.376Z,14.53
2017-09-26T14:27:00.822Z,11.90
2017-09-26T14:29:29.254Z,11.00
2017-09-26T14:31:58.434Z,8.60
2017-09-26T14:34:26.960Z,10.97
2017-09-26T14:36:55.380Z,14.67
2017-09-26T14:39:23.806Z,16.40
2017-09-26T14:41:52.239Z,19.43
2017-09-26T14:44:20.649Z,15.37
2017-09-26T14:46:49.832Z,13.10
2017-09-26T14:49:19.052Z,13.63
2017-09-26T14:51:47.475Z,18.10
2017-09-26T14:54:15.895Z,14.43
2017-09-26T14:56:45.163Z,20.30
2017-09-26T14:59:13.575Z,14.57
2017-09-26T15:01:41.998Z,24.47
2017-09-26T15:04:10.456Z,18.33
2017-09-26T15:06:38.883Z,15.40
2017-09-26T15:09:07.505Z,11.10
2017-09-26T15:11:35.944Z,13.30
2017-09-26T15:14:04.403Z,12.53
2017-09-26T15:16:35.415Z,12.50
2017-09-26T15:19:03.847Z,13.27
2017-09-26T15:21:32.966Z,19.70
2017-09-26T15:24:01.399Z,17.97
2017-09-26T15:26:29.855Z,13.13
2017-09-26T15:28:58.291Z,15.37
2017-09-26T15:31:27.468Z,18.07
2017-09-26T15:33:55.904Z,16.20
2017-09-26T15:36:24.329Z,15.50
2017-09-26T15:38:53.515Z,14.50
2017-09-26T15:41:21.948Z,22.03
2017-09-26T15:43:50.371Z,25.67
2017-09-26T15:46:18.798Z,18.23
2017-09-26T15:48:47.298Z,17.70
2017-09-26T15:51:15.466Z,19.53
2017-09-26T15:53:43.536Z,16.47
2017-09-26T15:56:12.028Z,14.73
2017-09-26T15:58:40.468Z,23.23
2017-09-26T16:01:09.130Z,20.63
2017-09-26T16:03:37.571Z,15.97
2017-09-26T16:06:06.004Z,17.63
2017-09-26T16:08:35.181Z,12.83
2017-09-26T16:11:03.714Z,24.30
2017-09-26T16:13:32.195Z,18.03
2017-09-26T16:16:00.607Z,14.33
2017-09-26T16:18:29.051Z,15.30
2017-09-26T16:20:57.480Z,46.07
2017-09-26T16:23:25.897Z,44.53
2017-09-26T16:25:54.149Z,54.83
2017-09-26T16:28:23.383Z,33.37
2017-09-26T16:30:51.803Z,20.87
2017-09-26T16:33:20.234Z,10.93
2017-09-26T16:35:48.732Z,10.07
2017-09-26T16:38:17.176Z,15.47
2017-09-26T16:40:45.615Z,14.93
2017-09-26T16:43:14.044Z,13.57
2017-09-26T16:45:42.536Z,26.07
2017-09-26T16:48:10.972Z,20.80
2017-09-26T16:50:40.172Z,19.43
2017-09-26T16:53:09.354Z,19.33
2017-09-26T16:55:37.786Z,14.37
2017-09-26T16:58:06.238Z,13.57
2017-09-26T17:00:35.434Z,14.13
2017-09-26T17:03:04.634Z,17.10
2017-09-26T17:05:33.811Z,15.00
2017-09-26T17:08:02.231Z,14.87
2017-09-26T17:10:30.684Z,20.60
2017-09-26T17:12:59.885Z,13.27
2017-09-26T17:15:28.314Z,16.13
2017-09-26T17:17:56.752Z,10.63
2017-09-26T17:20:25.168Z,10.50
2017-09-26T17:22:53.584Z,11.53
2017-09-26T17:25:23.929Z,13.20
2017-09-26T17:27:52.506Z,12.63
2017-09-26T17:30:20.947Z,10.53
2017-09-26T17:32:49.393Z,15.43
2017-09-26T17:35:17.817Z,29.13
2017-09-26T17:37:46.239Z,15.83
2017-09-26T17:40:14.683Z,13.10
2017-09-26T17:42:43.679Z,12.40
2017-09-26T17:45:12.855Z,19.50
2017-09-26T17:47:41.304Z,17.23
2017-09-26T17:50:09.715Z,16.20
2017-09-26T17:52:38.134Z,14.53
2017-09-26T17:55:06.564Z,12.57
2017-09-26T17:57:34.984Z,16.10
2017-09-26T18:00:03.067Z,17.23
2017-09-26T18:02:31.350Z,16.10
2017-09-26T18:04:59.580Z,18.60
2017-09-26T18:07:28.016Z,12.67
2017-09-26T18:09:56.458Z,22.03
2017-09-26T18:12:24.881Z,20.60
2017-09-26T18:14:53.300Z,24.40
2017-09-26T18:17:22.506Z,18.10
2017-09-26T18:19:51.697Z,16.60
2017-09-26T18:22:20.888Z,18.17
2017-09-26T18:24:49.320Z,19.03
2017-09-26T18:27:17.742Z,13.73
2017-09-26T18:29:46.156Z,19.37
2017-09-26T18:32:14.592Z,18.10
2017-09-26T18:34:43.020Z,16.87
2017-09-26T18:37:11.438Z,16.07
2017-09-26T18:39:39.878Z,15.40
2017-09-26T18:42:08.304Z,25.50
2017-09-26T18:44:36.737Z,22.27
2017-09-26T18:47:05.188Z,22.93
2017-09-26T18:49:34.383Z,20.33
2017-09-26T18:52:03.577Z,16.70
2017-09-26T18:54:32.115Z,25.90
2017-09-26T18:57:00.527Z,19.90
2017-09-26T18:59:28.943Z,13.93
2017-09-26T19:01:57.530Z,17.20
2017-09-26T19:04:25.983Z,16.80
2017-09-26T19:06:55.327Z,14.73
2017-09-26T19:09:23.779Z,17.20
2017-09-26T19:11:52.191Z,19.40
2017-09-26T19:14:20.613Z,13.93
2017-09-26T19:16:49.807Z,17.77
2017-09-26T19:19:18.992Z,17.30
2017-09-26T19:21:47.415Z,14.90
2017-09-26T19:24:16.643Z,14.30
2017-09-26T19:26:44.875Z,12.83
2017-09-26T19:29:13.306Z,20.97
2017-09-26T19:31:41.869Z,16.30
2017-09-26T19:34:10.283Z,14.00
2017-09-26T19:36:38.703Z,20.80
2017-09-26T19:39:07.154Z,14.57
2017-09-26T19:41:36.155Z,15.00
2017-09-26T19:44:05.327Z,23.30
2017-09-26T19:46:33.751Z,13.67
2017-09-26T19:49:02.169Z,22.00
2017-09-26T19:51:31.365Z,16.70
2017-09-26T19:53:59.806Z,16.60
2017-09-26T19:56:28.246Z,24.43
2017-09-26T19:58:59.082Z,17.10
2017-09-26T20:01:28.284Z,14.77
2017-09-26T20:03:57.512Z,18.30
2017-09-26T20:06:25.936Z,22.50
2017-09-26T20:08:54.376Z,18.40
2017-09-26T20:11:22.860Z,20.03
2017-09-26T20:13:51.274Z,16.27
2017-09-26T20:16:19.912Z,17.80
2017-09-26T20:18:48.345Z,21.20
2017-09-26T20:21:16.767Z,16.17
2017-09-26T20:23:45.207Z,16.80
2017-09-26T20:26:13.623Z,17.33
2017-09-26T20:28:42.028Z,15.97
2017-09-26T20:31:10.465Z,15.67
2017-09-26T20:33:39.661Z,18.20
2017-09-26T20:36:08.081Z,18.00
2017-09-26T20:38:36.530Z,20.37
2017-09-26T20:41:04.948Z,13.17
2017-09-26T20:43:33.370Z,19.13
2017-09-26T20:46:02.569Z,18.40
2017-09-26T20:48:31.760Z,20.13
2017-09-26T20:51:00.952Z,15.77
2017-09-26T20:53:29.375Z,17.07
2017-09-26T20:55:57.787Z,22.80
2017-09-26T20:58:26.200Z,20.93
2017-09-26T21:00:54.639Z,18.30
2017-09-26T21:03:23.064Z,22.30
2017-09-26T21:05:51.482Z,18.63
2017-09-26T21:08:19.919Z,15.07
2017-09-26T21:10:48.339Z,14.00
2017-09-26T21:13:16.764Z,23.03
2017-09-26T21:15:45.283Z,16.27
2017-09-26T21:18:13.705Z,20.10
2017-09-26T21:20:41.779Z,18.80
2017-09-26T21:23:11.125Z,21.67
2017-09-26T21:25:39.544Z,17.33
2017-09-26T21:28:07.970Z,19.80
2017-09-26T21:30:36.648Z,28.53
2017-09-26T21:33:05.095Z,19.90
2017-09-26T21:35:33.514Z,25.60
2017-09-26T21:38:02.006Z,22.33
2017-09-26T21:40:30.424Z,26.23
2017-09-26T21:42:58.859Z,32.93
2017-09-26T21:45:27.307Z,23.13
2017-09-26T21:47:56.500Z,24.97
2017-09-26T21:50:25.497Z,19.03
2017-09-26T21:52:53.960Z,17.37
2017-09-26T21:55:22.383Z,21.07
2017-09-26T21:57:50.807Z,17.93
2017-09-26T22:00:19.249Z,19.10
2017-09-26T22:02:47.671Z,16.27
2017-09-26T22:05:16.091Z,20.73
2017-09-26T22:07:44.528Z,20.40
2017-09-26T22:10:12.947Z,20.30
2017-09-26T22:12:41.364Z,25.80
2017-09-26T22:15:09.809Z,18.80
2017-09-26T22:17:38.231Z,30.07
2017-09-26T22:20:06.646Z,20.37
2017-09-26T22:22:35.846Z,19.60
2017-09-26T22:25:05.033Z,21.37
2017-09-26T22:27:34.239Z,21.47
2017-09-26T22:30:02.874Z,19.53
2017-09-26T22:32:31.294Z,19.53
2017-09-26T22:35:00.478Z,21.67
2017-09-26T22:37:29.685Z,21.13
2017-09-26T22:39:58.867Z,18.70
2017-09-26T22:42:27.278Z,21.70
2017-09-26T22:44:55.717Z,20.13
2017-09-26T22:47:24.128Z,20.90
2017-09-26T22:49:52.545Z,20.40
2017-09-26T22:52:20.988Z,25.93
2017-09-26T22:54:49.422Z,22.27
2017-09-26T22:57:17.834Z,17.00
2017-09-26T22:59:47.044Z,20.77
2017-09-26T23:02:15.471Z,17.50
2017-09-26T23:04:43.885Z,18.23
2017-09-26T23:07:13.104Z,15.60
2017-09-26T23:09:41.544Z,18.83
2017-09-26T23:12:09.974Z,20.20
2017-09-26T23:14:38.432Z,19.93
2017-09-26T23:17:06.952Z,21.43
2017-09-26T23:19:35.379Z,19.30
2017-09-26T23:22:04.607Z,17.37
2017-09-26T23:24:33.033Z,17.13
2017-09-26T23:27:01.544Z,18.53
2017-09-26T23:29:30.761Z,21.00
2017-09-26T23:31:59.180Z,23.33
2017-09-26T23:34:27.603Z,16.87
2017-09-26T23:36:56.038Z,17.80
2017-09-26T23:39:24.451Z,23.60
2017-09-26T23:41:52.877Z,15.90
2017-09-26T23:44:21.307Z,13.83
2017-09-26T23:46:50.494Z,22.53
2017-09-26T23:49:19.695Z,16.17
2017-09-26T23:51:48.895Z,15.77
2017-09-26T23:54:18.091Z,19.93
2017-09-26T23:56:47.266Z,15.73
2017-09-26T23:59:15.700Z,16.33
